Time;durP1;ratioP1;P1;durP2;ratioP2;P2;SDS_P1;SDS_P2;PMS_P1;PMS_P2;Temp;Humidity;BMP_temperature;BMP_pressure;BME280_temperature;BME280_humidity;BME280_pressure;Samples;Min_cycle;Max_cycle;Signal;HPM_P1;HPM_P2
2021/12/04 00:01:50;;;;;;;27.15;12.00;;;;;;;;;;5022897;28;20094;-75
2021/12/04 00:04:21;;;;;;;27.98;11.88;;;;;;;;;;5041695;28;20467;-74
2021/12/04 00:06:48;;;;;;;28.88;11.23;;;;;;;;;;5025884;28;20037;-74
2021/12/04 00:09:17;;;;;;;31.83;12.90;;;;;;;;;;5042103;28;20151;-76
2021/12/04 00:11:51;;;;;;;28.75;12.05;;;;;;;;;;5040923;28;20446;-76
2021/12/04 00:14:18;;;;;;;29.73;12.65;;;;;;;;;;5043461;28;20072;-76
2021/12/04 00:16:44;;;;;;;34.22;12.80;;;;;;;;;;5040737;28;20051;-75
2021/12/04 00:19:10;;;;;;;30.88;12.93;;;;;;;;;;5042615;28;20054;-75
2021/12/04 00:21:36;;;;;;;31.50;11.80;;;;;;;;;;5041274;28;20084;-77
2021/12/04 00:24:02;;;;;;;26.92;10.93;;;;;;;;;;5026950;28;20037;-76
2021/12/04 00:26:28;;;;;;;36.10;13.05;;;;;;;;;;5042425;28;20044;-75
2021/12/04 00:28:54;;;;;;;27.88;11.60;;;;;;;;;;5041661;28;20044;-75
2021/12/04 00:31:20;;;;;;;29.80;11.95;;;;;;;;;;5043008;28;20037;-75
2021/12/04 00:33:47;;;;;;;37.60;13.70;;;;;;;;;;5040350;28;20044;-76
2021/12/04 00:49:56;;;;;;;32.33;13.50;;;;;;;;;;5043102;28;20049;-74
2021/12/04 00:52:22;;;;;;;31.30;12.48;;;;;;;;;;5026329;28;20032;-76
2021/12/04 00:54:48;;;;;;;34.83;12.38;;;;;;;;;;5025167;28;20041;-76
2021/12/04 00:57:14;;;;;;;34.15;12.88;;;;;;;;;;5043368;28;20041;-76
2021/12/04 00:59:40;;;;;;;35.08;13.00;;;;;;;;;;5024020;28;20033;-75
2021/12/04 01:02:06;;;;;;;34.78;13.35;;;;;;;;;;5041925;28;20408;-73
2021/12/04 01:04:33;;;;;;;34.63;14.05;;;;;;;;;;5025594;28;20037;-75
2021/12/04 01:06:59;;;;;;;36.00;13.15;;;;;;;;;;5026547;28;20041;-75
2021/12/04 01:09:26;;;;;;;33.33;11.77;;;;;;;;;;5040188;28;20051;-74
2021/12/04 01:11:52;;;;;;;36.13;12.88;;;;;;;;;;5025233;28;20033;-78
2021/12/04 01:14:20;;;;;;;29.40;11.82;;;;;;;;;;5023536;28;20102;-76
2021/12/04 01:16:46;;;;;;;30.42;12.30;;;;;;;;;;5025129;28;20029;-74
2021/12/04 01:19:14;;;;;;;35.60;12.70;;;;;;;;;;5041440;28;20131;-76
2021/12/04 01:21:40;;;;;;;29.13;10.57;;;;;;;;;;5040058;28;20417;-75
2021/12/04 01:24:06;;;;;;;32.58;12.50;;;;;;;;;;5042872;28;20053;-75
2021/12/04 01:26:32;;;;;;;34.30;12.27;;;;;;;;;;5024404;28;20033;-75
2021/12/04 01:28:58;;;;;;;31.98;12.43;;;;;;;;;;5025524;28;20075;-74
2021/12/04 01:31:24;;;;;;;39.20;13.32;;;;;;;;;;5040334;28;20041;-77
2021/12/04 01:33:50;;;;;;;30.88;11.52;;;;;;;;;;5024487;28;20041;-75
2021/12/04 01:36:18;;;;;;;30.02;12.65;;;;;;;;;;5025683;28;20099;-77
2021/12/04 01:38:44;;;;;;;34.28;11.93;;;;;;;;;;5040455;28;20501;-77
2021/12/04 01:41:10;;;;;;;34.78;12.48;;;;;;;;;;5024308;28;20064;-76
2021/12/04 01:43:36;;;;;;;33.95;11.45;;;;;;;;;;5025211;28;20045;-77
2021/12/04 01:46:02;;;;;;;33.30;12.13;;;;;;;;;;5039225;28;20033;-76
2021/12/04 01:48:28;;;;;;;34.30;11.63;;;;;;;;;;5040663;28;20041;-75
2021/12/04 01:50:55;;;;;;;27.17;10.55;;;;;;;;;;5039694;28;20040;-75
2021/12/04 01:53:22;;;;;;;32.47;11.43;;;;;;;;;;5025115;28;20086;-77
2021/12/04 01:55:51;;;;;;;34.65;11.50;;;;;;;;;;5040287;28;20067;-77
2021/12/04 01:58:17;;;;;;;31.33;11.73;;;;;;;;;;5023329;28;20044;-77
2021/12/04 02:00:43;;;;;;;28.55;10.68;;;;;;;;;;5041473;28;20120;-77
2021/12/04 02:03:12;;;;;;;30.75;11.38;;;;;;;;;;5040477;28;20029;-77
2021/12/04 02:05:38;;;;;;;33.53;12.35;;;;;;;;;;5022804;28;20168;-76
2021/12/04 02:08:08;;;;;;;31.35;12.65;;;;;;;;;;5024595;28;20037;-77
2021/12/04 02:10:35;;;;;;;33.60;11.95;;;;;;;;;;5041104;28;20136;-77
2021/12/04 02:13:01;;;;;;;30.35;11.60;;;;;;;;;;5037902;28;20550;-76
2021/12/04 02:15:27;;;;;;;26.02;11.20;;;;;;;;;;5039419;28;20064;-78
2021/12/04 02:17:53;;;;;;;30.40;11.57;;;;;;;;;;5039697;28;20120;-75
2021/12/04 02:20:20;;;;;;;31.02;11.23;;;;;;;;;;5022445;28;20053;-76
2021/12/04 02:22:48;;;;;;;28.10;10.32;;;;;;;;;;5024199;28;20044;-77
2021/12/04 02:25:14;;;;;;;29.08;10.90;;;;;;;;;;5039781;28;20049;-75
2021/12/04 02:27:40;;;;;;;21.73;10.02;;;;;;;;;;5039204;28;20072;-77
2021/12/04 02:30:14;;;;;;;25.48;9.85;;;;;;;;;;5040783;28;20075;-77
2021/12/04 02:32:40;;;;;;;21.38;8.45;;;;;;;;;;5024647;28;20479;-76
2021/12/04 02:35:07;;;;;;;27.17;10.38;;;;;;;;;;5022685;28;20115;-76
2021/12/04 02:37:34;;;;;;;25.98;10.60;;;;;;;;;;5022568;28;20512;-77
2021/12/04 02:40:00;;;;;;;29.15;10.07;;;;;;;;;;5038364;28;20615;-76
2021/12/04 02:42:29;;;;;;;25.30;10.05;;;;;;;;;;5023677;28;20037;-77
2021/12/04 02:44:55;;;;;;;23.65;9.27;;;;;;;;;;5040547;28;20087;-77
2021/12/04 02:47:21;;;;;;;27.25;10.30;;;;;;;;;;5022027;28;20045;-77
2021/12/04 02:49:47;;;;;;;24.92;9.32;;;;;;;;;;5023607;28;20114;-77
2021/12/04 02:52:14;;;;;;;26.35;10.93;;;;;;;;;;5037784;28;20042;-76
2021/12/04 02:54:41;;;;;;;26.35;9.57;;;;;;;;;;5040302;28;20045;-76
2021/12/04 02:57:08;;;;;;;26.15;10.32;;;;;;;;;;5022396;28;20095;-76
2021/12/04 02:59:37;;;;;;;26.83;10.00;;;;;;;;;;5022285;28;20033;-77
2021/12/04 03:02:04;;;;;;;24.38;10.07;;;;;;;;;;5022066;28;20025;-76
2021/12/04 03:04:31;;;;;;;22.25;9.23;;;;;;;;;;5022765;28;20040;-76
2021/12/04 03:06:57;;;;;;;23.05;9.55;;;;;;;;;;5040226;28;20183;-75
2021/12/04 03:09:23;;;;;;;21.55;9.35;;;;;;;;;;5038343;28;20094;-77
2021/12/04 03:11:50;;;;;;;22.40;9.52;;;;;;;;;;5039381;28;20037;-76
2021/12/04 03:14:17;;;;;;;24.35;9.90;;;;;;;;;;5039808;28;20049;-76
2021/12/04 03:16:43;;;;;;;24.27;9.73;;;;;;;;;;5022139;28;20029;-76
2021/12/04 03:19:09;;;;;;;25.73;10.65;;;;;;;;;;5038975;28;20053;-74
2021/12/04 03:21:37;;;;;;;23.55;10.23;;;;;;;;;;5023194;28;20092;-77
2021/12/04 03:24:12;;;;;;;23.02;8.77;;;;;;;;;;5038359;28;20040;-76
2021/12/04 03:26:38;;;;;;;21.90;9.68;;;;;;;;;;5037940;28;20041;-76
2021/12/04 03:29:08;;;;;;;22.60;9.73;;;;;;;;;;5040349;28;20472;-77
2021/12/04 03:32:16;;;;;;;25.60;9.73;;;;;;;;;;5039395;28;20037;-75
2021/12/04 03:40:09;;;;;;;18.20;8.32;;;;;;;;;;5039671;28;20045;-75
2021/12/04 03:42:36;;;;;;;18.67;9.45;;;;;;;;;;5039837;28;20073;-75
2021/12/04 03:45:03;;;;;;;20.98;9.52;;;;;;;;;;5037507;28;20120;-76
2021/12/04 03:47:30;;;;;;;23.05;9.10;;;;;;;;;;5038779;28;20037;-77
2021/12/04 03:49:56;;;;;;;20.55;9.32;;;;;;;;;;5023008;28;20515;-76
2021/12/04 03:52:22;;;;;;;16.52;8.38;;;;;;;;;;5037895;28;20069;-77
2021/12/04 03:54:48;;;;;;;25.23;9.48;;;;;;;;;;5038853;28;20080;-75
2021/12/04 03:57:14;;;;;;;21.45;8.48;;;;;;;;;;5022672;28;20060;-75
2021/12/04 03:59:44;;;;;;;22.75;8.65;;;;;;;;;;5037620;28;20076;-77
2021/12/04 04:02:11;;;;;;;18.33;7.57;;;;;;;;;;5038858;28;20040;-77
2021/12/04 04:04:37;;;;;;;21.65;8.73;;;;;;;;;;5023411;28;20086;-77
2021/12/04 04:07:03;;;;;;;20.80;9.02;;;;;;;;;;5037401;28;20116;-77
2021/12/04 04:09:29;;;;;;;19.33;6.95;;;;;;;;;;5038678;28;20040;-77
2021/12/04 04:11:56;;;;;;;18.90;7.57;;;;;;;;;;5039420;28;20405;-76
2021/12/04 04:14:23;;;;;;;18.92;8.57;;;;;;;;;;5037236;28;20056;-75
2021/12/04 04:16:49;;;;;;;21.00;9.07;;;;;;;;;;5038462;28;20049;-74
2021/12/04 04:19:16;;;;;;;20.30;8.48;;;;;;;;;;5039183;28;20083;-75
2021/12/04 04:21:42;;;;;;;16.15;6.97;;;;;;;;;;5037559;28;20041;-76
2021/12/04 04:24:12;;;;;;;19.77;8.27;;;;;;;;;;5038867;28;20041;-76
2021/12/04 04:26:39;;;;;;;18.88;7.82;;;;;;;;;;5039427;28;21097;-78
2021/12/04 04:29:05;;;;;;;17.40;8.07;;;;;;;;;;5037927;28;20045;-77
2021/12/04 04:31:31;;;;;;;19.15;7.90;;;;;;;;;;5038482;28;20083;-77
2021/12/04 04:34:02;;;;;;;22.02;7.40;;;;;;;;;;5039372;28;20065;-77
2021/12/04 05:01:17;;;;;;;14.40;7.40;;;;;;;;;;5040818;28;20045;-76
2021/12/04 05:12:14;;;;;;;20.73;7.68;;;;;;;;;;5042235;28;20346;-77
2021/12/04 05:14:43;;;;;;;18.52;7.25;;;;;;;;;;5050461;28;20132;-76
2021/12/04 05:19:53;;;;;;;17.95;6.70;;;;;;;;;;5040509;28;20045;-77
2021/12/04 05:22:19;;;;;;;18.05;6.38;;;;;;;;;;5042548;28;20043;-76
2021/12/04 05:24:45;;;;;;;16.65;6.93;;;;;;;;;;5040325;28;20460;-76
2021/12/04 05:27:11;;;;;;;18.90;6.90;;;;;;;;;;5024848;28;20095;-76
2021/12/04 05:29:38;;;;;;;15.32;6.90;;;;;;;;;;5025535;28;20042;-77
2021/12/04 05:32:05;;;;;;;20.05;6.97;;;;;;;;;;5023509;28;20076;-76
2021/12/04 05:34:32;;;;;;;20.08;7.18;;;;;;;;;;5024485;28;20128;-76
2021/12/04 05:36:58;;;;;;;16.35;7.38;;;;;;;;;;5041955;28;20033;-76
2021/12/04 05:39:24;;;;;;;16.17;7.15;;;;;;;;;;5026036;28;20129;-76
2021/12/04 05:41:51;;;;;;;14.95;7.00;;;;;;;;;;5024462;28;20032;-76
2021/12/04 05:44:19;;;;;;;15.60;7.40;;;;;;;;;;5041974;28;20092;-76
2021/12/04 05:46:53;;;;;;;18.90;7.45;;;;;;;;;;5039529;28;20049;-76
2021/12/04 05:49:26;;;;;;;18.50;6.63;;;;;;;;;;5039871;28;20311;-76
2021/12/04 05:52:08;;;;;;;16.65;7.68;;;;;;;;;;5024286;28;20032;-76
2021/12/04 05:57:03;;;;;;;15.63;6.82;;;;;;;;;;5039699;28;20036;-76
2021/12/04 05:59:29;;;;;;;16.15;6.55;;;;;;;;;;5023459;28;20063;-76
2021/12/04 06:01:56;;;;;;;21.23;7.65;;;;;;;;;;5041217;28;20037;-76
2021/12/04 06:04:22;;;;;;;20.20;7.88;;;;;;;;;;5039597;28;20044;-76
2021/12/04 06:06:48;;;;;;;22.98;7.95;;;;;;;;;;5024556;28;20033;-77
2021/12/04 06:09:14;;;;;;;20.38;7.22;;;;;;;;;;5040753;28;20405;-76
2021/12/04 06:11:40;;;;;;;19.45;7.68;;;;;;;;;;5022764;28;20048;-76
2021/12/04 06:14:06;;;;;;;18.85;8.07;;;;;;;;;;5041031;28;20063;-76
2021/12/04 06:16:32;;;;;;;20.75;7.22;;;;;;;;;;5040599;28;20033;-76
2021/12/04 06:19:05;;;;;;;20.15;8.05;;;;;;;;;;5039968;28;20029;-76
2021/12/04 06:24:16;;;;;;;19.17;7.57;;;;;;;;;;5043892;28;20057;-77
2021/12/04 06:26:42;;;;;;;20.45;7.25;;;;;;;;;;5042433;28;20045;-77
2021/12/04 06:29:08;;;;;;;18.70;8.13;;;;;;;;;;5043771;28;20039;-77
2021/12/04 06:31:34;;;;;;;22.88;6.68;;;;;;;;;;5026932;28;20493;-76
2021/12/04 06:34:00;;;;;;;20.95;8.20;;;;;;;;;;5042387;28;20583;-77
2021/12/04 06:36:26;;;;;;;18.40;7.53;;;;;;;;;;5044251;28;20029;-77
2021/12/04 06:38:53;;;;;;;16.75;6.75;;;;;;;;;;5043458;28;20037;-77
2021/12/04 06:41:19;;;;;;;27.33;8.55;;;;;;;;;;5042237;28;20076;-77
2021/12/04 06:43:49;;;;;;;16.85;6.45;;;;;;;;;;5027011;28;20040;-77
2021/12/04 06:46:16;;;;;;;24.55;8.27;;;;;;;;;;5043499;28;20084;-76
2021/12/04 06:48:47;;;;;;;22.88;8.65;;;;;;;;;;5024857;28;20037;-76
2021/12/04 06:53:47;;;;;;;18.30;8.07;;;;;;;;;;5041701;28;20091;-76
2021/12/04 06:56:15;;;;;;;22.25;8.07;;;;;;;;;;5026458;28;20058;-77
2021/12/04 06:58:41;;;;;;;19.73;7.55;;;;;;;;;;5027246;28;20043;-76
2021/12/04 07:01:10;;;;;;;32.85;8.65;;;;;;;;;;5041939;28;20080;-76
2021/12/04 07:03:36;;;;;;;19.40;7.72;;;;;;;;;;5026092;28;20141;-77
2021/12/04 07:06:02;;;;;;;25.25;8.68;;;;;;;;;;5028003;28;20131;-76
2021/12/04 07:08:28;;;;;;;20.85;8.38;;;;;;;;;;5044534;28;20127;-76
2021/12/04 07:10:54;;;;;;;22.23;7.88;;;;;;;;;;5043474;28;20094;-76
2021/12/04 07:13:20;;;;;;;27.73;9.35;;;;;;;;;;5025677;28;20032;-76
2021/12/04 07:15:46;;;;;;;21.65;8.23;;;;;;;;;;5037001;28;20119;-76
2021/12/04 07:18:13;;;;;;;31.15;8.23;;;;;;;;;;5034186;28;20041;-76
2021/12/04 07:20:39;;;;;;;23.15;7.88;;;;;;;;;;5017087;28;20049;-77
2021/12/04 07:23:05;;;;;;;22.40;8.85;;;;;;;;;;5033567;28;20084;-75
2021/12/04 07:25:32;;;;;;;29.08;9.30;;;;;;;;;;5017465;28;20036;-75
2021/12/04 07:27:58;;;;;;;26.20;9.88;;;;;;;;;;5033822;28;20043;-75
2021/12/04 07:30:24;;;;;;;21.33;7.53;;;;;;;;;;5017110;28;20108;-77
2021/12/04 07:32:51;;;;;;;33.67;8.68;;;;;;;;;;5033582;28;20124;-75
2021/12/04 07:35:17;;;;;;;23.80;8.07;;;;;;;;;;5017567;28;20048;-76
2021/12/04 07:37:43;;;;;;;25.50;8.48;;;;;;;;;;5017462;28;20041;-77
2021/12/04 07:40:10;;;;;;;28.20;8.70;;;;;;;;;;5033977;28;20037;-77
2021/12/04 07:42:36;;;;;;;24.23;8.20;;;;;;;;;;5033443;28;20400;-76
2021/12/04 07:45:03;;;;;;;26.20;9.02;;;;;;;;;;5016917;28;20131;-77
2021/12/04 07:47:29;;;;;;;23.80;8.70;;;;;;;;;;5033725;28;20048;-77
2021/12/04 07:49:56;;;;;;;25.33;8.98;;;;;;;;;;5033337;28;20051;-76
2021/12/04 07:52:22;;;;;;;20.88;8.00;;;;;;;;;;5016991;28;20071;-76
2021/12/04 07:54:49;;;;;;;22.20;7.28;;;;;;;;;;5016799;28;20037;-75
2021/12/04 07:57:15;;;;;;;25.38;9.25;;;;;;;;;;5033677;28;20044;-77
2021/12/04 07:59:42;;;;;;;22.60;8.05;;;;;;;;;;5016718;28;20040;-75
2021/12/04 08:02:08;;;;;;;25.98;8.07;;;;;;;;;;5016838;28;20041;-75
2021/12/04 08:04:34;;;;;;;19.20;6.97;;;;;;;;;;5033513;28;20053;-76
2021/12/04 08:07:00;;;;;;;16.10;6.68;;;;;;;;;;5033514;28;20048;-77
2021/12/04 08:09:26;;;;;;;17.00;6.30;;;;;;;;;;5016981;28;20037;-75
2021/12/04 08:11:52;;;;;;;19.60;7.00;;;;;;;;;;5033335;28;20136;-76
2021/12/04 08:14:18;;;;;;;18.75;6.30;;;;;;;;;;5034064;28;20194;-76
2021/12/04 08:16:44;;;;;;;14.95;6.15;;;;;;;;;;5033967;28;20123;-77
2021/12/04 08:19:10;;;;;;;18.67;6.60;;;;;;;;;;5033574;28;20048;-76
2021/12/04 08:21:37;;;;;;;16.23;6.18;;;;;;;;;;5016774;28;20048;-73
2021/12/04 08:24:05;;;;;;;14.40;5.57;;;;;;;;;;5037064;28;20092;-76
2021/12/04 08:26:31;;;;;;;11.82;5.53;;;;;;;;;;5037884;28;20503;-77
2021/12/04 08:28:57;;;;;;;15.50;6.25;;;;;;;;;;5021280;28;20145;-77
2021/12/04 08:31:23;;;;;;;14.73;6.28;;;;;;;;;;5037563;28;20179;-77
2021/12/04 08:33:49;;;;;;;12.05;5.90;;;;;;;;;;5036930;28;20127;-76
2021/12/04 08:36:16;;;;;;;12.75;5.93;;;;;;;;;;5020011;28;20043;-75
2021/12/04 08:38:46;;;;;;;14.52;6.13;;;;;;;;;;5020182;28;20033;-75
2021/12/04 08:41:12;;;;;;;13.40;5.88;;;;;;;;;;5020205;28;20148;-75
2021/12/04 08:43:38;;;;;;;12.90;6.40;;;;;;;;;;5017367;28;20051;-76
2021/12/04 08:46:04;;;;;;;14.85;6.00;;;;;;;;;;5032863;28;20136;-75
2021/12/04 08:48:32;;;;;;;12.77;5.68;;;;;;;;;;5016590;28;20037;-75
2021/12/04 08:50:59;;;;;;;14.57;6.90;;;;;;;;;;5016574;28;20098;-75
2021/12/04 08:53:25;;;;;;;15.93;6.60;;;;;;;;;;5033145;28;20607;-74
2021/12/04 08:55:51;;;;;;;12.77;5.55;;;;;;;;;;5013843;28;20374;-74
2021/12/04 08:58:17;;;;;;;16.73;6.43;;;;;;;;;;5016266;28;20493;-75
2021/12/04 09:00:49;;;;;;;15.70;7.45;;;;;;;;;;5015969;28;20066;-75
2021/12/04 09:03:15;;;;;;;16.73;6.97;;;;;;;;;;5033817;28;20044;-74
2021/12/04 09:05:41;;;;;;;17.77;7.20;;;;;;;;;;5033900;28;20044;-76
2021/12/04 09:08:08;;;;;;;16.65;6.82;;;;;;;;;;5032891;28;20353;-76
2021/12/04 09:10:34;;;;;;;17.85;7.22;;;;;;;;;;5015679;28;20052;-75
2021/12/04 09:13:00;;;;;;;15.35;6.13;;;;;;;;;;5031918;28;20123;-75
2021/12/04 09:15:27;;;;;;;15.85;7.25;;;;;;;;;;5032459;28;20037;-76
2021/12/04 09:17:53;;;;;;;18.80;7.30;;;;;;;;;;5015811;28;20489;-76
2021/12/04 09:20:20;;;;;;;19.08;7.43;;;;;;;;;;5015245;28;20060;-75
2021/12/04 09:22:49;;;;;;;17.60;6.85;;;;;;;;;;5015775;28;20067;-75
2021/12/04 09:25:17;;;;;;;15.52;6.68;;;;;;;;;;5031734;28;20136;-75
2021/12/04 09:28:00;;;;;;;14.20;6.55;;;;;;;;;;5032324;28;20051;-75
2021/12/04 09:33:42;;;;;;;15.50;7.07;;;;;;;;;;5032002;28;20382;-75
2021/12/04 10:00:38;;;;;;;13.25;5.63;;;;;;;;;;5031317;28;20080;-76
2021/12/04 10:11:28;;;;;;;14.10;5.95;;;;;;;;;;5031580;28;20045;-77
2021/12/04 10:19:16;;;;;;;11.75;5.82;;;;;;;;;;5031214;28;20045;-76
2021/12/04 10:21:53;;;;;;;18.13;8.30;;;;;;;;;;5014685;28;20044;-76
2021/12/04 10:32:54;;;;;;;15.25;6.32;;;;;;;;;;5030867;28;20493;-76
2021/12/04 10:35:19;;;;;;;18.25;7.32;;;;;;;;;;5031080;28;20080;-76
2021/12/04 10:38:01;;;;;;;20.25;6.88;;;;;;;;;;5015905;28;20052;-77
2021/12/04 10:40:36;;;;;;;18.25;6.82;;;;;;;;;;5032552;28;20044;-76
2021/12/04 10:43:05;;;;;;;18.00;7.70;;;;;;;;;;5014817;28;20037;-74
2021/12/04 10:45:37;;;;;;;15.57;6.97;;;;;;;;;;5013677;28;20564;-77
2021/12/04 10:48:05;;;;;;;19.17;7.60;;;;;;;;;;5030183;28;20176;-76
2021/12/04 10:52:59;;;;;;;23.45;8.55;;;;;;;;;;5030433;28;20051;-75
2021/12/04 11:00:55;;;;;;;22.35;8.38;;;;;;;;;;5030466;28;20057;-77
2021/12/04 11:03:51;;;;;;;21.13;8.35;;;;;;;;;;5014015;28;20045;-76
2021/12/04 11:22:55;;;;;;;28.30;10.82;;;;;;;;;;5030243;28;20045;-75
2021/12/04 11:35:01;;;;;;;25.60;8.77;;;;;;;;;;5029807;28;20052;-77
2021/12/04 11:38:54;;;;;;;21.80;7.80;;;;;;;;;;5032404;28;20040;-76
2021/12/04 11:41:41;;;;;;;25.00;8.65;;;;;;;;;;5033378;28;20048;-77
2021/12/04 11:44:13;;;;;;;23.77;8.90;;;;;;;;;;5033432;28;20049;-76
2021/12/04 11:46:44;;;;;;;23.73;9.63;;;;;;;;;;5033123;28;20045;-77
2021/12/04 11:49:18;;;;;;;27.40;11.90;;;;;;;;;;5033359;28;20051;-76
2021/12/04 11:51:47;;;;;;;24.38;9.43;;;;;;;;;;5033275;28;20045;-77
2021/12/04 11:54:13;;;;;;;23.13;9.43;;;;;;;;;;5033012;28;20044;-76
2021/12/04 11:56:39;;;;;;;25.83;9.57;;;;;;;;;;5016639;28;20128;-76
2021/12/04 11:59:05;;;;;;;24.27;8.50;;;;;;;;;;5036914;28;20049;-77
2021/12/04 12:01:33;;;;;;;29.02;10.50;;;;;;;;;;5020654;28;20037;-77
2021/12/04 12:04:01;;;;;;;26.05;9.27;;;;;;;;;;5036955;28;20047;-76
2021/12/04 12:06:31;;;;;;;26.88;11.07;;;;;;;;;;5036898;28;20128;-77
2021/12/04 12:09:03;;;;;;;29.13;10.52;;;;;;;;;;5036980;28;20037;-76
2021/12/04 12:11:30;;;;;;;24.30;10.38;;;;;;;;;;5037154;28;20045;-76
2021/12/04 12:14:02;;;;;;;24.38;8.82;;;;;;;;;;5020293;28;20404;-77
2021/12/04 12:16:35;;;;;;;30.27;11.20;;;;;;;;;;5036764;28;20033;-77
2021/12/04 12:19:04;;;;;;;29.98;10.82;;;;;;;;;;5036968;28;20045;-76
2021/12/04 12:21:41;;;;;;;28.50;11.02;;;;;;;;;;5020791;28;20041;-76
2021/12/04 12:32:38;;;;;;;30.48;11.23;;;;;;;;;;5033014;28;20197;-76
2021/12/04 12:37:48;;;;;;;26.38;10.85;;;;;;;;;;5033260;28;20441;-76
2021/12/04 12:40:16;;;;;;;24.23;11.07;;;;;;;;;;5033421;28;20045;-76
2021/12/04 12:42:43;;;;;;;24.50;10.38;;;;;;;;;;5033364;28;20041;-76
2021/12/04 12:45:29;;;;;;;26.10;11.80;;;;;;;;;;5033313;28;20055;-77
2021/12/04 12:48:00;;;;;;;26.90;11.50;;;;;;;;;;5032636;28;20103;-76
2021/12/04 12:50:27;;;;;;;26.80;11.75;;;;;;;;;;5032701;28;20049;-77
2021/12/04 12:53:00;;;;;;;29.15;12.05;;;;;;;;;;5032791;28;20037;-76
2021/12/04 12:55:31;;;;;;;27.00;10.65;;;;;;;;;;5032627;28;20476;-77
2021/12/04 12:57:58;;;;;;;33.97;12.65;;;;;;;;;;5032912;28;20041;-76
2021/12/04 13:14:09;;;;;;;38.72;13.25;;;;;;;;;;5032101;28;20049;-77
2021/12/04 13:16:35;;;;;;;38.88;15.07;;;;;;;;;;5032274;28;20048;-76
2021/12/04 13:19:05;;;;;;;45.35;14.90;;;;;;;;;;5015474;28;20140;-77
2021/12/04 13:21:36;;;;;;;44.17;14.43;;;;;;;;;;5032236;28;20123;-76
2021/12/04 13:24:03;;;;;;;40.50;14.98;;;;;;;;;;5032324;28;20167;-76
2021/12/04 13:26:31;;;;;;;43.33;13.95;;;;;;;;;;5032141;28;20076;-76
2021/12/04 13:28:59;;;;;;;40.63;14.60;;;;;;;;;;5031894;28;20443;-77
2021/12/04 13:31:26;;;;;;;41.33;13.23;;;;;;;;;;5032154;28;20052;-74
2021/12/04 13:33:52;;;;;;;40.92;13.80;;;;;;;;;;5032026;28;20083;-76
2021/12/04 13:36:20;;;;;;;42.92;13.60;;;;;;;;;;5015565;28;20132;-77
2021/12/04 13:38:47;;;;;;;44.30;14.93;;;;;;;;;;5032051;28;20041;-77
2021/12/04 13:41:13;;;;;;;47.15;14.23;;;;;;;;;;5031843;28;20493;-77
2021/12/04 13:43:40;;;;;;;46.00;15.23;;;;;;;;;;5015385;28;20128;-76
2021/12/04 13:46:06;;;;;;;40.97;14.77;;;;;;;;;;5031995;28;20049;-77
2021/12/04 13:48:33;;;;;;;42.05;14.25;;;;;;;;;;5015389;28;20041;-76
2021/12/04 13:50:59;;;;;;;37.42;12.60;;;;;;;;;;5015208;28;20485;-76
2021/12/04 13:53:28;;;;;;;38.97;12.65;;;;;;;;;;5031646;28;20095;-77
2021/12/04 13:56:06;;;;;;;40.38;14.10;;;;;;;;;;5031588;28;20091;-76
2021/12/04 13:58:32;;;;;;;37.05;11.98;;;;;;;;;;5015153;28;20044;-76
2021/12/04 14:01:03;;;;;;;43.55;14.70;;;;;;;;;;5015155;28;20140;-76
2021/12/04 14:03:31;;;;;;;36.05;11.82;;;;;;;;;;5015300;28;20049;-76
2021/12/04 14:05:57;;;;;;;34.80;12.77;;;;;;;;;;5031083;28;20155;-76
2021/12/04 14:08:24;;;;;;;35.13;12.20;;;;;;;;;;5031372;28;20052;-76
2021/12/04 14:10:50;;;;;;;38.08;12.85;;;;;;;;;;5031577;28;20048;-76
2021/12/04 14:13:18;;;;;;;35.15;11.27;;;;;;;;;;5014539;28;20048;-76
2021/12/04 14:15:45;;;;;;;29.40;12.40;;;;;;;;;;5031066;28;20073;-76
2021/12/04 14:18:13;;;;;;;37.92;12.10;;;;;;;;;;5014776;28;20044;-76
2021/12/04 14:20:41;;;;;;;33.38;12.20;;;;;;;;;;5013641;28;20053;-76
2021/12/04 14:23:07;;;;;;;30.20;11.27;;;;;;;;;;5030996;28;20045;-76
2021/12/04 14:25:42;;;;;;;36.80;13.18;;;;;;;;;;5014662;28;20520;-76
2021/12/04 14:28:08;;;;;;;40.05;13.52;;;;;;;;;;5015326;28;20047;-76
2021/12/04 14:30:36;;;;;;;38.45;14.10;;;;;;;;;;5013676;28;20106;-77
2021/12/04 14:33:03;;;;;;;41.55;15.02;;;;;;;;;;5030799;28;20049;-76
2021/12/04 14:35:31;;;;;;;34.15;12.50;;;;;;;;;;5014318;28;20140;-76
2021/12/04 14:37:58;;;;;;;34.10;13.35;;;;;;;;;;5030447;28;20106;-76
2021/12/04 14:40:28;;;;;;;39.38;14.40;;;;;;;;;;5013688;28;20067;-76
2021/12/04 14:42:54;;;;;;;43.50;13.65;;;;;;;;;;5014211;28;20072;-76
2021/12/04 14:45:22;;;;;;;40.55;13.40;;;;;;;;;;5014315;28;20071;-77
2021/12/04 14:47:49;;;;;;;50.63;15.68;;;;;;;;;;5030388;28;20098;-76
2021/12/04 14:50:17;;;;;;;51.22;16.15;;;;;;;;;;5030556;28;20140;-76
2021/12/04 14:52:48;;;;;;;50.17;16.42;;;;;;;;;;5013787;28;20131;-76
2021/12/04 14:55:22;;;;;;;50.65;15.85;;;;;;;;;;5030424;28;20037;-76
2021/12/04 14:57:48;;;;;;;44.95;15.93;;;;;;;;;;5013943;28;20520;-77
2021/12/04 15:00:20;;;;;;;58.05;18.20;;;;;;;;;;5013999;28;20047;-76
2021/12/04 15:03:13;;;;;;;54.28;15.85;;;;;;;;;;5014200;28;20045;-77
2021/12/04 15:05:50;;;;;;;46.08;15.75;;;;;;;;;;5025782;28;20063;-76
2021/12/04 15:08:20;;;;;;;52.47;17.05;;;;;;;;;;5014027;28;20076;-76
2021/12/04 15:10:56;;;;;;;53.10;16.00;;;;;;;;;;5030597;28;20186;-77
2021/12/04 15:13:23;;;;;;;56.80;17.90;;;;;;;;;;5013564;28;20036;-76
2021/12/04 15:15:51;;;;;;;51.55;17.02;;;;;;;;;;5030591;28;20048;-76
2021/12/04 15:18:20;;;;;;;48.95;17.58;;;;;;;;;;5013372;28;20041;-76
2021/12/04 15:20:54;;;;;;;52.95;16.90;;;;;;;;;;5029905;28;20059;-77
2021/12/04 15:23:22;;;;;;;47.85;15.65;;;;;;;;;;5030180;28;20397;-77
2021/12/04 15:25:51;;;;;;;45.70;16.80;;;;;;;;;;5029993;28;20521;-77
2021/12/04 15:28:18;;;;;;;42.83;14.70;;;;;;;;;;5029814;28;20064;-77
2021/12/04 15:30:46;;;;;;;53.05;17.45;;;;;;;;;;5030234;28;20048;-77
2021/12/04 15:33:22;;;;;;;56.58;16.80;;;;;;;;;;5013171;28;20059;-77
2021/12/04 15:35:50;;;;;;;51.95;16.67;;;;;;;;;;5013383;28;20047;-77
2021/12/04 15:38:24;;;;;;;50.25;15.90;;;;;;;;;;5013265;28;20045;-77
2021/12/04 15:43:42;;;;;;;53.08;16.65;;;;;;;;;;5029377;28;20048;-77
2021/12/04 15:46:24;;;;;;;53.08;16.48;;;;;;;;;;5029718;28;20049;-78
2021/12/04 15:54:27;;;;;;;44.67;16.23;;;;;;;;;;4969380;28;20057;-78
2021/12/04 15:56:54;;;;;;;;;;;;;;;;;;4969185;28;20580;-77
2021/12/04 15:59:20;;;;;;;56.47;19.05;;;;;;;;;;5001206;28;19928;-77
2021/12/04 16:01:47;;;;;;;56.75;18.08;;;;;;;;;;5032612;28;20397;-77
2021/12/04 16:04:21;;;;;;;53.53;17.10;;;;;;;;;;5016348;28;20045;-77
2021/12/04 16:06:47;;;;;;;50.78;16.02;;;;;;;;;;5032828;28;20045;-78
2021/12/04 16:09:13;;;;;;;48.50;16.70;;;;;;;;;;5033054;28;20048;-78
2021/12/04 16:11:40;;;;;;;46.58;16.92;;;;;;;;;;5016406;28;20045;-78
2021/12/04 16:14:07;;;;;;;47.35;15.25;;;;;;;;;;5032772;28;20059;-77
2021/12/04 16:16:37;;;;;;;43.85;14.60;;;;;;;;;;5032898;28;20045;-77
2021/12/04 16:19:03;;;;;;;50.88;19.05;;;;;;;;;;5016228;28;20037;-77
2021/12/04 16:21:29;;;;;;;49.35;17.02;;;;;;;;;;5017023;28;20037;-78
2021/12/04 16:23:55;;;;;;;48.15;16.85;;;;;;;;;;5016427;28;20045;-77
2021/12/04 16:26:24;;;;;;;49.00;15.98;;;;;;;;;;5016605;28;20404;-77
2021/12/04 16:36:44;;;;;;;52.63;16.35;;;;;;;;;;5005085;28;20044;-77
2021/12/04 16:39:12;;;;;;;47.00;16.77;;;;;;;;;;5032845;28;20045;-77
2021/12/04 16:41:39;;;;;;;53.90;17.70;;;;;;;;;;5016494;28;20139;-77
2021/12/04 16:44:07;;;;;;;48.72;18.02;;;;;;;;;;5034643;28;20128;-78
2021/12/04 16:46:38;;;;;;;47.55;16.45;;;;;;;;;;5033283;28;20523;-78
2021/12/04 16:49:06;;;;;;;44.42;16.08;;;;;;;;;;5016255;28;20540;-78
2021/12/04 16:59:21;;;;;;;44.67;16.08;;;;;;;;;;5032729;28;20044;-76
2021/12/04 17:01:49;;;;;;;42.83;17.35;;;;;;;;;;5016280;28;20473;-78
2021/12/04 17:04:16;;;;;;;35.40;14.02;;;;;;;;;;5015948;28;20049;-78
2021/12/04 17:06:43;;;;;;;45.10;16.48;;;;;;;;;;5032724;28;20496;-77
2021/12/04 17:09:10;;;;;;;34.22;15.05;;;;;;;;;;5016050;28;20048;-77
2021/12/04 17:11:36;;;;;;;37.05;14.63;;;;;;;;;;5032901;28;20052;-78
2021/12/04 17:14:02;;;;;;;35.63;14.27;;;;;;;;;;5015947;28;20044;-77
2021/12/04 17:16:28;;;;;;;33.05;14.02;;;;;;;;;;5016114;28;20115;-78
2021/12/04 17:19:01;;;;;;;31.90;13.95;;;;;;;;;;5032763;28;20072;-78
2021/12/04 17:21:27;;;;;;;33.50;13.52;;;;;;;;;;5033946;28;20071;-76
2021/12/04 17:23:53;;;;;;;32.88;13.50;;;;;;;;;;5019724;28;20048;-77
2021/12/04 17:26:21;;;;;;;30.83;13.35;;;;;;;;;;5019407;28;20041;-77
2021/12/04 17:28:47;;;;;;;32.92;14.77;;;;;;;;;;5033798;28;20052;-77
2021/12/04 17:31:16;;;;;;;33.50;14.02;;;;;;;;;;5055679;28;20412;-77
2021/12/04 17:33:47;;;;;;;32.45;14.30;;;;;;;;;;5055295;28;20049;-77
2021/12/04 17:36:13;;;;;;;34.60;14.23;;;;;;;;;;5039030;28;20139;-78
2021/12/04 17:38:43;;;;;;;29.27;13.55;;;;;;;;;;5038744;28;20040;-78
2021/12/04 17:41:09;;;;;;;28.70;14.25;;;;;;;;;;5038621;28;20036;-78
2021/12/04 17:43:35;;;;;;;32.95;13.98;;;;;;;;;;5038442;28;20036;-78
2021/12/04 17:46:01;;;;;;;31.90;13.85;;;;;;;;;;5055326;28;20403;-78